Página principal
METAR-TAF:

METAR-TAF

Aeroportos :

Aeroporto das Flores

Flores, Açores, Portugal

latitude: 39-27N, longitude: 031-08W, altura: 28 m

Observação actual do tempo

O boletim foi feito há 10 horas e 53 minutos, às 19:00 UTC
Vento 7 kt de sul
Temperatura 18°C
Humidade 94%
Pressão 1026 hPa
Visibilidade 10 km ou mais
Nuvens fragmentadasa uma altura de 200 ft
Nuvens fragmentadasa uma altura de 800 ft

METAR: LPFL 241900Z 17007KT 9999 BKN002 BKN008 18/17 Q1026

Hora: 05:53 (05:53 UTC)


TAF: em falta

Observações e previsões do tempo de mais de 4000 aeroportos (mensagens METAR e TAF).

As estações disponíveis são os pontos amarelos e vermelhos sobre o mapa.

Mova o rato sobre o mapa para ver o nome da estação.

Depois clique no ponto para visualizar as observações e previsões meteorológicas.

Para alterar o mapa : clique nos botões verdes com uma cruz preta para aumentar o zoom; no botão verde com uma pitada de zoom; ou nas setas verdes para mapas adjacentes.


METAR-TAF: